Time;durP1;ratioP1;P1;durP2;ratioP2;P2;SDS_P1;SDS_P2;PMS_P1;PMS_P2;Temp;Humidity;BMP_temperature;BMP_pressure;BME280_temperature;BME280_humidity;BME280_pressure;Samples;Min_cycle;Max_cycle;Signal;HPM_P1;HPM_P2
2021/11/08 00:00:27;;;;;;;16.05;12.63;;;;;;;6.59;100.00;99855.50;5111804;28;20208;-79
2021/11/08 00:02:56;;;;;;;18.60;14.15;;;;;;;6.46;100.00;99863.13;5113091;28;20610;-79
2021/11/08 00:05:24;;;;;;;16.15;12.90;;;;;;;6.40;100.00;99863.34;5112279;28;20275;-79
2021/11/08 00:07:55;;;;;;;18.50;12.95;;;;;;;6.22;100.00;99867.59;5113225;27;20185;-77
2021/11/08 00:10:28;;;;;;;19.65;13.27;;;;;;;6.19;100.00;99859.66;5112485;28;20180;-77
2021/11/08 00:12:55;;;;;;;21.42;15.27;;;;;;;6.05;100.00;99863.69;5112009;28;20237;-79
2021/11/08 00:15:27;;;;;;;22.15;13.95;;;;;;;6.11;100.00;99867.09;5111775;28;20234;-77
2021/11/08 00:17:59;;;;;;;18.63;12.45;;;;;;;6.15;100.00;99869.59;5111976;28;20188;-78
2021/11/08 00:20:30;;;;;;;17.40;12.20;;;;;;;6.02;100.00;99869.16;5111743;28;20215;-78
2021/11/08 00:22:56;;;;;;;19.10;11.85;;;;;;;5.92;100.00;99874.81;5112191;28;20595;-77
2021/11/08 00:25:23;;;;;;;20.15;13.38;;;;;;;5.69;100.00;99875.63;5112104;28;20290;-79
2021/11/08 00:27:51;;;;;;;17.23;12.00;;;;;;;5.69;100.00;99871.13;5112153;28;20191;-79
2021/11/08 00:30:17;;;;;;;20.70;12.32;;;;;;;5.58;100.00;99875.97;5111872;28;20228;-79
2021/11/08 00:32:44;;;;;;;23.15;11.63;;;;;;;5.39;100.00;99867.69;5111907;28;20279;-79
2021/11/08 00:35:12;;;;;;;15.25;11.45;;;;;;;5.45;100.00;99872.84;5111793;28;20196;-79
2021/11/08 00:37:40;;;;;;;21.50;11.73;;;;;;;5.37;100.00;99867.75;5111687;28;20526;-79
2021/11/08 00:40:08;;;;;;;17.02;11.98;;;;;;;5.40;100.00;99877.44;5111776;28;20204;-78
2021/11/08 00:42:35;;;;;;;14.57;10.48;;;;;;;5.47;100.00;99873.66;5111749;28;20292;-79
2021/11/08 00:45:01;;;;;;;16.85;11.68;;;;;;;5.26;100.00;99877.03;5111843;28;20184;-79
2021/11/08 00:47:29;;;;;;;18.15;10.43;;;;;;;5.14;100.00;99881.84;5111709;28;20206;-77
2021/11/08 00:49:57;;;;;;;15.13;11.40;;;;;;;5.11;100.00;99887.28;5112076;28;20630;-79
2021/11/08 00:52:23;;;;;;;16.25;11.80;;;;;;;5.24;100.00;99887.75;5111737;28;20626;-77
2021/11/08 00:54:52;;;;;;;17.75;11.23;;;;;;;5.26;100.00;99887.72;5111957;28;20203;-77
2021/11/08 00:57:21;;;;;;;20.27;12.23;;;;;;;5.27;100.00;99889.44;5111630;28;20219;-77
2021/11/08 00:59:51;;;;;;;12.40;10.27;;;;;;;5.30;100.00;99892.03;5111432;28;20192;-77
2021/11/08 01:02:19;;;;;;;15.73;10.18;;;;;;;5.25;100.00;99885.97;5111507;28;20233;-78
2021/11/08 01:04:46;;;;;;;14.30;10.98;;;;;;;5.20;100.00;99896.78;5111448;28;20215;-77
2021/11/08 01:07:13;;;;;;;14.35;10.25;;;;;;;5.28;100.00;99893.88;5111129;28;20278;-77
2021/11/08 01:09:39;;;;;;;12.93;10.65;;;;;;;5.38;100.00;99892.63;5113890;28;20621;-77
2021/11/08 01:12:10;;;;;;;17.88;12.15;;;;;;;5.56;100.00;99892.06;5115778;28;20482;-77
2021/11/08 01:14:36;;;;;;;14.63;11.43;;;;;;;5.53;100.00;99893.94;5115315;28;20705;-76
2021/11/08 01:17:04;;;;;;;14.85;11.60;;;;;;;5.40;100.00;99893.47;5115637;28;20204;-77
2021/11/08 01:19:31;;;;;;;20.38;11.77;;;;;;;5.37;100.00;99878.44;5115133;28;20187;-77
2021/11/08 01:22:05;;;;;;;14.30;9.80;;;;;;;5.44;100.00;99879.09;5114978;28;20674;-77
2021/11/08 01:24:33;;;;;;;13.20;10.82;;;;;;;5.46;100.00;99868.38;5114969;28;20188;-78
2021/11/08 01:27:00;;;;;;;13.95;11.40;;;;;;;5.43;100.00;99874.69;5114721;28;20198;-78
2021/11/08 01:29:31;;;;;;;14.32;11.90;;;;;;;5.55;100.00;99876.09;5115299;28;20249;-78
2021/11/08 01:31:58;;;;;;;16.75;11.88;;;;;;;5.54;100.00;99883.22;5115206;28;20180;-78
2021/11/08 01:34:26;;;;;;;15.40;11.43;;;;;;;5.18;100.00;99888.84;5115232;28;20188;-78
2021/11/08 01:36:54;;;;;;;15.60;11.82;;;;;;;4.93;100.00;99891.38;5114800;28;20204;-78
2021/11/08 01:39:25;;;;;;;15.90;10.63;;;;;;;4.97;100.00;99897.47;5115148;28;20537;-78
2021/11/08 01:41:52;;;;;;;17.75;11.30;;;;;;;5.24;100.00;99901.09;5115119;28;20324;-78
2021/11/08 01:44:19;;;;;;;18.33;12.65;;;;;;;5.49;100.00;99902.97;5115041;28;20238;-78
2021/11/08 01:46:47;;;;;;;13.27;9.80;;;;;;;5.39;100.00;99908.63;5114977;28;20270;-78
2021/11/08 01:49:13;;;;;;;15.57;10.90;;;;;;;5.45;100.00;99904.91;5114609;28;20701;-78
2021/11/08 01:51:40;;;;;;;15.07;11.60;;;;;;;5.60;100.00;99895.50;5114625;28;20186;-78
2021/11/08 01:54:08;;;;;;;16.40;11.15;;;;;;;5.42;100.00;99894.28;5114918;28;20660;-78
2021/11/08 01:56:35;;;;;;;14.05;11.27;;;;;;;5.29;100.00;99903.63;5114553;28;20192;-78
2021/11/08 01:59:03;;;;;;;17.20;11.90;;;;;;;5.39;100.00;99897.94;5114175;28;20192;-78
2021/11/08 02:01:30;;;;;;;19.38;13.35;;;;;;;5.37;100.00;99902.47;5114215;28;20223;-78
2021/11/08 02:03:58;;;;;;;19.67;12.85;;;;;;;5.37;100.00;99898.91;5114315;28;20181;-78
2021/11/08 02:06:25;;;;;;;19.10;13.10;;;;;;;5.35;100.00;99900.75;5114786;28;20210;-78
2021/11/08 02:08:52;;;;;;;17.00;12.65;;;;;;;5.63;100.00;99896.28;5114344;28;20652;-78
2021/11/08 02:11:20;;;;;;;17.38;13.10;;;;;;;5.59;100.00;99894.63;5114684;28;20610;-78
2021/11/08 02:13:47;;;;;;;19.80;12.63;;;;;;;5.55;100.00;99898.31;5113794;28;20200;-77
2021/11/08 02:16:15;;;;;;;18.33;12.70;;;;;;;5.38;100.00;99908.66;5114481;28;20294;-78
2021/11/08 02:18:42;;;;;;;14.48;10.63;;;;;;;5.39;100.00;99905.09;5114156;28;20184;-78
2021/11/08 02:21:12;;;;;;;31.85;12.68;;;;;;;5.35;100.00;99912.31;5113883;28;20208;-78
2021/11/08 02:23:40;;;;;;;21.35;11.90;;;;;;;5.25;100.00;99918.00;5114469;28;20221;-78
2021/11/08 02:26:11;;;;;;;26.88;11.48;;;;;;;5.13;100.00;99909.47;5114088;28;20195;-78
2021/11/08 02:28:39;;;;;;;19.77;10.20;;;;;;;5.16;100.00;99921.84;5113915;28;20203;-77
2021/11/08 02:31:06;;;;;;;10.18;8.85;;;;;;;5.07;100.00;99912.31;5114151;28;20206;-77
2021/11/08 02:33:34;;;;;;;14.13;10.00;;;;;;;5.22;100.00;99919.84;5114176;28;20583;-77
2021/11/08 02:36:00;;;;;;;13.65;9.27;;;;;;;5.24;100.00;99917.13;5114261;28;20536;-78
2021/11/08 02:38:29;;;;;;;13.10;10.15;;;;;;;5.32;100.00;99909.75;5113949;28;20203;-77
2021/11/08 02:40:58;;;;;;;14.85;9.25;;;;;;;5.19;100.00;99903.03;5113727;28;20204;-77
2021/11/08 02:43:25;;;;;;;12.82;9.40;;;;;;;5.16;100.00;99897.81;5113839;28;20695;-79
2021/11/08 02:45:57;;;;;;;12.65;9.65;;;;;;;5.26;100.00;99917.06;5114129;28;20529;-79
2021/11/08 02:48:25;;;;;;;14.30;10.40;;;;;;;5.35;100.00;99906.09;5113869;28;20278;-77
2021/11/08 02:50:56;;;;;;;16.63;10.00;;;;;;;5.34;100.00;99904.38;5113460;28;20196;-77
2021/11/08 02:53:24;;;;;;;21.33;10.00;;;;;;;5.17;100.00;99903.09;5113847;28;20192;-77
2021/11/08 02:55:53;;;;;;;15.75;10.25;;;;;;;5.14;100.00;99905.00;5113233;28;20188;-77
2021/11/08 02:58:21;;;;;;;18.38;11.30;;;;;;;5.22;100.00;99908.28;5113606;28;20688;-78
2021/11/08 03:00:48;;;;;;;21.58;9.88;;;;;;;5.16;100.00;99906.69;5113422;28;20218;-79
2021/11/08 03:03:15;;;;;;;18.08;10.77;;;;;;;5.19;100.00;99903.03;5113056;28;20188;-77
2021/11/08 03:05:42;;;;;;;20.60;8.98;;;;;;;4.99;100.00;99896.50;5113235;28;20199;-77
2021/11/08 03:08:09;;;;;;;26.67;10.77;;;;;;;4.89;100.00;99915.53;5113128;28;20188;-77
2021/11/08 03:10:39;;;;;;;25.65;9.43;;;;;;;4.80;100.00;99906.88;5112989;28;20195;-77
2021/11/08 03:13:14;;;;;;;24.92;9.65;;;;;;;4.74;100.00;99906.19;5113401;28;20569;-79
2021/11/08 03:15:51;;;;;;;35.40;9.27;;;;;;;4.75;100.00;99902.63;5112821;28;20330;-78
2021/11/08 03:18:27;;;;;;;30.30;9.05;;;;;;;4.65;100.00;99911.78;5113518;27;20197;-77
2021/11/08 03:20:53;;;;;;;27.98;9.10;;;;;;;4.71;100.00;99906.28;5133791;27;20214;-78
2021/11/08 03:23:20;;;;;;;29.20;9.15;;;;;;;4.66;100.00;99898.41;5133750;27;20191;-79
2021/11/08 03:25:51;;;;;;;23.73;8.80;;;;;;;4.94;100.00;99908.25;5133317;27;20186;-78
2021/11/08 03:28:19;;;;;;;41.40;9.15;;;;;;;4.93;100.00;99903.81;5133310;27;20186;-78
2021/11/08 03:30:48;;;;;;;38.03;9.80;;;;;;;4.76;100.00;99913.22;5133031;27;20183;-78
2021/11/08 03:33:16;;;;;;;26.58;8.90;;;;;;;4.69;100.00;99914.31;5130174;27;20184;-78
2021/11/08 03:35:43;;;;;;;30.63;10.15;;;;;;;4.58;100.00;99913.75;5112979;28;20297;-78
2021/11/08 03:38:13;;;;;;;27.45;10.48;;;;;;;4.76;100.00;99923.03;5112550;28;20195;-78
2021/11/08 03:40:44;;;;;;;19.90;10.13;;;;;;;4.73;100.00;99913.31;5112815;28;20195;-78
2021/11/08 03:43:13;;;;;;;30.10;9.82;;;;;;;4.81;100.00;99908.63;5112878;28;20658;-78
2021/11/08 03:45:42;;;;;;;21.55;9.07;;;;;;;4.58;100.00;99911.09;5112778;28;20274;-77
2021/11/08 03:48:12;;;;;;;26.08;11.00;;;;;;;4.54;100.00;99914.75;5112353;28;20184;-77
2021/11/08 03:50:39;;;;;;;21.35;10.50;;;;;;;4.74;100.00;99920.38;5112743;28;20206;-77
2021/11/08 03:53:06;;;;;;;29.17;10.32;;;;;;;4.45;100.00;99925.69;5112145;28;20191;-78
2021/11/08 03:55:33;;;;;;;24.13;10.38;;;;;;;4.64;100.00;99923.38;5112777;28;20550;-77
2021/11/08 03:58:00;;;;;;;22.58;9.90;;;;;;;4.65;100.00;99928.66;5112200;28;20373;-78
2021/11/08 04:00:29;;;;;;;28.23;9.73;;;;;;;4.75;100.00;99940.81;5112273;28;20287;-77
2021/11/08 04:02:59;;;;;;;21.25;9.20;;;;;;;4.78;100.00;99943.41;5112458;28;20199;-77
2021/11/08 04:05:29;;;;;;;22.83;9.55;;;;;;;4.83;100.00;99942.41;5112253;28;20275;-78
2021/11/08 04:07:57;;;;;;;27.60;9.80;;;;;;;4.92;100.00;99943.00;5111695;28;20192;-77
2021/11/08 04:10:24;;;;;;;12.75;8.50;;;;;;;5.00;100.00;99938.31;5112613;28;20196;-77
2021/11/08 04:12:52;;;;;;;12.57;7.72;;;;;;;4.91;100.00;99937.72;5112005;28;20191;-78
2021/11/08 04:15:22;;;;;;;15.23;8.75;;;;;;;5.00;100.00;99945.44;5111987;28;20567;-77
2021/11/08 04:17:49;;;;;;;11.77;7.82;;;;;;;5.03;100.00;99948.00;5112186;28;20959;-77
2021/11/08 04:20:21;;;;;;;11.73;7.90;;;;;;;4.90;100.00;99943.97;5111570;28;20231;-77
2021/11/08 04:22:50;;;;;;;26.98;7.93;;;;;;;4.76;100.00;99942.56;5112102;28;20222;-78
2021/11/08 04:25:19;;;;;;;13.68;6.72;;;;;;;4.83;100.00;99945.94;5111363;28;20184;-77
2021/11/08 04:27:47;;;;;;;24.65;7.82;;;;;;;4.75;100.00;99943.50;5110888;28;20641;-78
2021/11/08 04:30:14;;;;;;;16.90;8.05;;;;;;;4.74;100.00;99928.38;5111997;28;20192;-77
2021/11/08 04:32:49;;;;;;;16.27;7.10;;;;;;;4.76;100.00;99942.56;5111629;28;20192;-77
2021/11/08 04:35:24;;;;;;;17.60;7.82;;;;;;;4.67;100.00;99937.50;5111872;28;20222;-78
2021/11/08 04:38:08;;;;;;;12.80;7.20;;;;;;;4.77;100.00;99941.66;5112012;28;20241;-78
2021/11/08 04:40:39;;;;;;;16.42;7.07;;;;;;;4.75;100.00;99937.28;5111811;28;20941;-78
2021/11/08 04:43:10;;;;;;;17.60;7.63;;;;;;;4.81;100.00;99943.28;5112840;28;20196;-78
2021/11/08 04:51:19;;;;;;;17.02;7.95;;;;;;;4.68;100.00;99954.38;5114652;28;20184;-79
2021/11/08 04:53:52;;;;;;;16.40;7.88;;;;;;;4.57;100.00;99946.69;5116000;28;20179;-79
2021/11/08 05:32:14;;;;;;;21.38;9.05;;;;;;;4.00;100.00;99955.31;5113771;28;20300;-76
2021/11/08 05:34:41;;;;;;;32.78;9.45;;;;;;;3.85;100.00;99951.25;5115127;28;20192;-78
2021/11/08 05:37:09;;;;;;;40.70;10.75;;;;;;;3.92;100.00;99959.06;5114867;28;20188;-78
2021/11/08 05:39:37;;;;;;;18.75;8.52;;;;;;;4.09;100.00;99963.06;5114557;28;20199;-78
2021/11/08 05:42:05;;;;;;;18.60;8.88;;;;;;;4.15;100.00;99960.25;5115045;28;20239;-78
2021/11/08 05:44:33;;;;;;;30.90;8.82;;;;;;;4.12;100.00;99960.34;5114967;28;20639;-78
2021/11/08 05:46:59;;;;;;;21.45;10.00;;;;;;;3.71;100.00;99965.78;5114658;28;20199;-77
2021/11/08 05:49:26;;;;;;;26.45;9.55;;;;;;;3.48;100.00;99970.78;5114972;28;20180;-76
2021/11/08 05:51:53;;;;;;;22.00;11.18;;;;;;;3.31;100.00;99981.81;5114824;28;20545;-77
2021/11/08 05:54:20;;;;;;;17.33;10.05;;;;;;;3.42;100.00;99982.44;5113954;28;20199;-77
2021/11/08 05:57:02;;;;;;;23.08;9.63;;;;;;;3.15;100.00;99985.72;5112884;28;20184;-79
2021/11/08 05:59:46;;;;;;;16.00;10.00;;;;;;;3.46;100.00;99981.47;5114609;28;20219;-77
2021/11/08 06:49:13;;;;;;;18.88;10.30;;;;;;;4.61;100.00;100017.69;5112676;28;20316;-79
2021/11/08 06:51:40;;;;;;;19.52;10.18;;;;;;;4.58;100.00;100017.78;5113094;28;20203;-77
2021/11/08 06:54:07;;;;;;;34.92;11.85;;;;;;;4.58;100.00;100025.78;5112190;28;20204;-77
2021/11/08 06:56:38;;;;;;;32.15;11.77;;;;;;;4.45;100.00;100025.22;5112655;28;20216;-77
2021/11/08 06:59:05;;;;;;;24.75;15.02;;;;;;;4.44;100.00;100030.59;5112595;28;20237;-78
2021/11/08 07:01:35;;;;;;;31.27;11.90;;;;;;;4.55;100.00;100024.06;5112949;28;20597;-76
2021/11/08 07:04:01;;;;;;;21.25;10.70;;;;;;;4.72;100.00;100036.06;5112301;28;20176;-79
2021/11/08 07:06:28;;;;;;;25.70;13.23;;;;;;;4.77;100.00;100031.47;5112020;28;20184;-77
2021/11/08 07:08:56;;;;;;;21.23;13.07;;;;;;;4.67;100.00;100044.19;5113139;28;20184;-78
2021/11/08 07:11:22;;;;;;;19.40;10.50;;;;;;;4.69;100.00;100047.69;5112225;28;20599;-79
2021/11/08 07:13:49;;;;;;;28.83;9.52;;;;;;;4.10;100.00;100044.78;5111967;28;20206;-78
2021/11/08 07:16:15;;;;;;;23.52;10.63;;;;;;;4.22;100.00;100052.47;5112488;28;20180;-78
2021/11/08 07:18:43;;;;;;;17.88;9.95;;;;;;;4.45;100.00;100051.00;5112005;28;20217;-78
2021/11/08 07:21:10;;;;;;;20.40;11.50;;;;;;;4.54;100.00;100053.44;5111892;28;20286;-77
2021/11/08 07:23:36;;;;;;;15.18;9.43;;;;;;;4.46;100.00;100061.66;5112358;28;20207;-77
2021/11/08 07:26:04;;;;;;;16.73;11.75;;;;;;;4.57;100.00;100064.03;5112455;28;20215;-79
2021/11/08 07:28:30;;;;;;;20.75;9.32;;;;;;;4.87;100.00;100069.47;5111944;28;20195;-79
2021/11/08 07:30:57;;;;;;;12.80;8.82;;;;;;;4.82;100.00;100077.59;5111600;28;20291;-76
2021/11/08 07:33:23;;;;;;;16.05;9.90;;;;;;;4.81;100.00;100075.84;5112041;28;20724;-79
2021/11/08 07:35:51;;;;;;;15.05;10.43;;;;;;;4.93;100.00;100082.63;5111784;28;20505;-77
2021/11/08 07:38:18;;;;;;;18.13;9.73;;;;;;;4.67;100.00;100080.66;5111797;28;20184;-80
2021/11/08 07:40:44;;;;;;;21.23;9.57;;;;;;;4.39;100.00;100089.38;5111570;28;20294;-79
2021/11/08 07:43:11;;;;;;;15.10;10.20;;;;;;;4.51;100.00;100081.06;5111758;28;20211;-79
2021/11/08 07:45:38;;;;;;;21.90;11.23;;;;;;;4.49;100.00;100092.69;5111552;28;20187;-77
2021/11/08 07:48:06;;;;;;;20.50;10.90;;;;;;;4.31;100.00;100102.88;5111312;28;20740;-78
2021/11/08 07:50:33;;;;;;;28.88;13.05;;;;;;;4.37;100.00;100096.53;5111481;28;20192;-78
2021/11/08 07:53:01;;;;;;;19.83;12.60;;;;;;;4.52;100.00;100097.94;5111609;28;20644;-79
2021/11/08 07:55:28;;;;;;;17.77;11.07;;;;;;;4.57;100.00;100102.25;5110914;28;20225;-79
2021/11/08 07:57:55;;;;;;;18.73;10.27;;;;;;;4.60;100.00;100096.81;5111702;28;20634;-78
2021/11/08 08:00:21;;;;;;;23.35;12.32;;;;;;;4.88;100.00;100100.56;5111620;28;20184;-79
2021/11/08 08:02:49;;;;;;;20.30;12.48;;;;;;;4.78;100.00;100100.81;5111195;28;20219;-78
2021/11/08 08:05:16;;;;;;;28.45;12.63;;;;;;;4.78;100.00;100099.94;5111334;28;20229;-78
2021/11/08 08:07:42;;;;;;;28.85;12.15;;;;;;;5.01;98.80;100089.50;5111569;28;20184;-77
2021/11/08 08:10:11;;;;;;;29.00;13.80;;;;;;;4.61;99.25;100089.69;5111166;28;20206;-79
2021/11/08 08:12:38;;;;;;;26.75;14.82;;;;;;;4.97;100.00;100084.28;5111336;28;20192;-78
2021/11/08 08:15:05;;;;;;;30.90;13.18;;;;;;;5.10;97.98;100091.06;5110973;28;20232;-78
2021/11/08 08:17:32;;;;;;;36.55;18.75;;;;;;;5.03;96.61;100081.47;5110744;28;20195;-79
2021/11/08 08:19:59;;;;;;;24.67;12.57;;;;;;;4.91;96.41;100084.50;5111356;28;20280;-78
2021/11/08 08:22:27;;;;;;;29.65;12.45;;;;;;;5.15;96.96;100089.13;5110774;28;20319;-79
2021/11/08 08:24:53;;;;;;;18.58;11.48;;;;;;;5.36;96.10;100092.09;5111254;28;20683;-79
2021/11/08 08:27:21;;;;;;;26.98;12.07;;;;;;;5.04;97.00;100085.88;5110841;28;20300;-78
2021/11/08 08:29:51;;;;;;;21.52;12.25;;;;;;;5.24;96.99;100082.66;5109547;28;20203;-78
2021/11/08 08:32:17;;;;;;;25.70;14.63;;;;;;;5.68;94.43;100087.63;5110640;28;20180;-79
2021/11/08 08:34:44;;;;;;;16.55;11.38;;;;;;;5.73;92.19;100085.69;5110563;28;20192;-79
2021/11/08 08:37:11;;;;;;;14.48;9.85;;;;;;;5.60;92.21;100088.72;5110963;28;20538;-78
2021/11/08 08:39:37;;;;;;;15.68;9.93;;;;;;;5.46;92.40;100093.59;5110852;28;20231;-78
2021/11/08 08:42:05;;;;;;;26.55;10.68;;;;;;;5.15;93.64;100093.59;5110902;28;20210;-79
2021/11/08 08:44:33;;;;;;;22.23;11.02;;;;;;;5.44;92.35;100090.97;5111416;28;20196;-79
2021/11/08 08:47:00;;;;;;;24.67;10.40;;;;;;;5.69;91.83;100090.22;5110764;28;20203;-79
2021/11/08 08:49:27;;;;;;;18.30;10.55;;;;;;;5.83;90.41;100089.81;5110774;28;20192;-78
2021/11/08 08:51:53;;;;;;;14.18;9.57;;;;;;;6.01;89.19;100089.25;5110624;28;20199;-78
2021/11/08 08:54:20;;;;;;;13.52;8.70;;;;;;;6.12;87.89;100088.06;5110641;28;20199;-78
2021/11/08 08:56:48;;;;;;;16.73;9.15;;;;;;;6.19;87.82;100082.44;5110606;28;20283;-79
2021/11/08 08:59:15;;;;;;;14.68;9.73;;;;;;;6.13;87.29;100077.31;5110189;28;20286;-78
2021/11/08 09:01:43;;;;;;;22.38;9.55;;;;;;;5.81;89.24;100083.63;5111377;28;20194;-79
2021/11/08 09:04:09;;;;;;;16.45;10.30;;;;;;;5.79;90.08;100083.69;5111004;28;20204;-79
2021/11/08 09:06:36;;;;;;;13.77;10.35;;;;;;;5.90;90.34;100083.38;5111485;28;20215;-78
2021/11/08 09:09:04;;;;;;;16.27;10.25;;;;;;;6.09;89.05;100081.00;5111087;28;20184;-78
2021/11/08 09:11:31;;;;;;;15.32;10.52;;;;;;;6.02;89.54;100083.00;5110634;28;20196;-77
2021/11/08 09:14:00;;;;;;;13.85;9.57;;;;;;;6.36;87.42;100083.72;5110275;28;20184;-77
2021/11/08 09:16:27;;;;;;;17.92;11.23;;;;;;;6.30;87.96;100082.09;5110873;28;20519;-78
2021/11/08 09:18:55;;;;;;;19.88;10.05;;;;;;;6.20;87.77;100080.69;5109778;28;20198;-78
2021/11/08 09:21:25;;;;;;;14.82;11.20;;;;;;;6.19;89.42;100069.09;5110616;28;20188;-78
2021/11/08 09:23:52;;;;;;;27.38;15.77;;;;;;;6.47;89.24;100077.09;5110796;28;20654;-77
2021/11/08 09:26:20;;;;;;;15.35;9.85;;;;;;;6.43;88.30;100075.44;5110806;28;20535;-77
2021/11/08 09:28:47;;;;;;;11.88;8.10;;;;;;;6.13;90.29;100080.00;5110840;28;20285;-79
2021/11/08 09:31:15;;;;;;;10.65;8.10;;;;;;;5.85;92.08;100080.81;5113230;28;20559;-78
2021/11/08 09:33:42;;;;;;;12.75;8.20;;;;;;;6.08;91.19;100083.72;5114004;28;20198;-77
2021/11/08 09:36:12;;;;;;;21.48;10.35;;;;;;;6.14;89.46;100081.72;5113684;28;20184;-79
2021/11/08 09:38:48;;;;;;;10.93;7.47;;;;;;;5.99;90.04;100079.53;5113881;28;20279;-77
2021/11/08 09:41:16;;;;;;;11.77;7.65;;;;;;;6.16;89.99;100079.03;5114290;28;20209;-77
2021/11/08 09:43:44;;;;;;;13.75;7.25;;;;;;;6.55;88.50;100089.31;5113750;28;20214;-78
2021/11/08 09:46:11;;;;;;;14.00;9.25;;;;;;;6.85;86.79;100079.34;5113693;28;20634;-77
2021/11/08 09:48:39;;;;;;;9.85;7.35;;;;;;;6.54;87.17;100096.47;5113843;28;20182;-78
2021/11/08 09:51:08;;;;;;;9.65;7.60;;;;;;;6.73;87.01;100096.72;5113363;28;20215;-77
2021/11/08 09:53:36;;;;;;;12.25;7.90;;;;;;;6.78;86.89;100102.78;5113856;28;20275;-79
2021/11/08 09:56:05;;;;;;;12.65;8.75;;;;;;;6.70;87.17;100107.53;5113757;28;20627;-78
2021/11/08 09:58:33;;;;;;;14.32;9.00;;;;;;;6.92;86.43;100106.78;5113191;28;20181;-76
2021/11/08 10:01:05;;;;;;;13.20;8.43;;;;;;;7.12;85.26;100104.25;5113718;28;20191;-77
2021/11/08 10:03:33;;;;;;;11.70;8.82;;;;;;;7.36;84.03;100098.97;5113576;28;20200;-79
2021/11/08 10:06:01;;;;;;;17.30;11.05;;;;;;;7.66;82.73;100097.78;5113254;28;20198;-77
2021/11/08 10:08:30;;;;;;;16.95;9.77;;;;;;;7.82;81.71;100095.41;5112907;28;20192;-77
2021/11/08 10:11:01;;;;;;;15.32;11.20;;;;;;;7.46;83.05;100097.69;5113382;28;20212;-77
2021/11/08 10:13:31;;;;;;;17.60;11.10;;;;;;;7.72;83.04;100105.63;5113089;28;20180;-79
2021/11/08 10:16:01;;;;;;;14.55;10.82;;;;;;;7.67;83.63;100099.56;5112658;28;20237;-79
2021/11/08 10:18:28;;;;;;;19.27;12.85;;;;;;;7.34;85.18;100108.88;5113334;28;20516;-77
2021/11/08 10:21:05;;;;;;;18.45;12.32;;;;;;;7.25;86.58;100121.66;5112947;28;20630;-78
2021/11/08 10:23:32;;;;;;;20.83;13.10;;;;;;;7.51;85.45;100111.81;5113215;28;20729;-78
2021/11/08 10:26:00;;;;;;;18.00;12.40;;;;;;;7.75;83.73;100125.19;5112475;28;20187;-78
2021/11/08 10:28:28;;;;;;;20.08;12.55;;;;;;;7.04;86.34;100111.72;5112586;28;20200;-78
2021/11/08 10:30:57;;;;;;;18.73;11.70;;;;;;;7.11;87.75;100115.94;5112970;28;20198;-78
2021/11/08 10:33:30;;;;;;;18.50;12.00;;;;;;;7.81;84.72;100114.25;5095734;28;20192;-78
2021/11/08 10:36:00;;;;;;;15.93;11.73;;;;;;;7.91;83.13;100116.53;5092318;28;20243;-77
2021/11/08 10:38:29;;;;;;;18.02;12.48;;;;;;;8.13;81.83;100108.47;5092398;28;20188;-79
2021/11/08 10:40:58;;;;;;;17.25;12.75;;;;;;;8.23;81.43;100105.41;5092539;28;20216;-79
2021/11/08 10:43:28;;;;;;;21.80;14.48;;;;;;;8.41;80.90;100107.41;5092793;28;20576;-78
2021/11/08 10:45:56;;;;;;;22.95;16.23;;;;;;;8.58;80.34;100106.69;5092584;28;20537;-78
2021/11/08 10:48:26;;;;;;;23.05;15.13;;;;;;;8.60;79.47;100114.69;5092492;28;20292;-77
2021/11/08 10:50:53;;;;;;;23.73;16.27;;;;;;;8.78;78.01;100095.13;5092393;28;20593;-77
2021/11/08 10:53:22;;;;;;;17.63;12.50;;;;;;;8.62;80.35;100096.72;5092817;28;20572;-78
2021/11/08 10:55:51;;;;;;;25.40;12.95;;;;;;;8.55;81.80;100101.47;5092623;28;20650;-78
2021/11/08 10:58:20;;;;;;;17.15;12.30;;;;;;;8.48;82.70;100110.69;5092895;28;20192;-78
2021/11/08 11:00:51;;;;;;;20.45;15.18;;;;;;;8.76;81.96;100099.69;5092646;28;20193;-78
2021/11/08 11:03:20;;;;;;;26.75;17.45;;;;;;;8.70;80.42;100106.16;5098932;28;20616;-78
2021/11/08 11:05:47;;;;;;;21.92;15.60;;;;;;;8.33;82.56;100101.44;5107673;28;20695;-78
2021/11/08 11:08:15;;;;;;;19.63;14.60;;;;;;;8.67;81.75;100100.06;5112775;28;20324;-78
2021/11/08 11:10:53;;;;;;;26.45;15.75;;;;;;;8.92;79.68;100098.06;5113458;28;20332;-78
2021/11/08 11:13:22;;;;;;;23.42;16.05;;;;;;;9.13;79.57;100092.69;5112610;28;20177;-78
2021/11/08 11:15:51;;;;;;;32.20;21.70;;;;;;;9.25;79.44;100088.59;5111125;28;20309;-78
2021/11/08 11:18:18;;;;;;;25.98;15.23;;;;;;;9.34;79.11;100080.16;5111733;28;20192;-79
2021/11/08 11:20:48;;;;;;;24.10;15.88;;;;;;;8.86;81.44;100087.59;5111957;28;20188;-80
2021/11/08 11:23:21;;;;;;;24.85;16.45;;;;;;;8.92;82.13;100094.53;5111382;28;20218;-78
2021/11/08 11:25:52;;;;;;;24.50;14.77;;;;;;;8.97;82.96;100088.00;5102825;28;20196;-78
2021/11/08 11:28:25;;;;;;;27.52;17.20;;;;;;;9.19;82.17;100081.69;5111199;28;20194;-78
2021/11/08 11:30:55;;;;;;;22.65;15.68;;;;;;;9.36;80.87;100076.44;5109748;28;20258;-78
2021/11/08 11:33:26;;;;;;;23.15;16.15;;;;;;;9.45;79.30;100087.69;5111258;28;20189;-78
2021/11/08 11:36:01;;;;;;;23.52;15.85;;;;;;;9.48;79.78;100077.69;5111320;28;20187;-77
2021/11/08 11:38:32;;;;;;;23.45;13.30;;;;;;;9.48;79.45;100087.56;5111456;28;20187;-78
2021/11/08 11:41:01;;;;;;;26.27;16.02;;;;;;;9.27;80.34;100079.53;5111913;28;20246;-78
2021/11/08 11:43:30;;;;;;;24.25;15.07;;;;;;;9.65;79.36;100074.19;5111690;28;20293;-78
2021/11/08 11:45:58;;;;;;;24.50;15.43;;;;;;;9.91;78.08;100074.81;5111569;28;20221;-78
2021/11/08 11:48:28;;;;;;;21.48;15.65;;;;;;;9.89;77.38;100063.25;5111144;28;20241;-78
2021/11/08 11:50:56;;;;;;;23.60;15.85;;;;;;;9.15;80.05;100080.06;5115580;27;20232;-79
2021/11/08 11:53:24;;;;;;;23.30;14.88;;;;;;;9.31;80.52;100075.75;5110938;28;20193;-77
2021/11/08 11:55:52;;;;;;;21.27;15.13;;;;;;;9.11;80.75;100073.09;5111917;28;20195;-78
2021/11/08 11:58:20;;;;;;;24.05;16.35;;;;;;;9.37;80.12;100069.25;5110885;28;20557;-77
2021/11/08 12:00:49;;;;;;;24.80;15.75;;;;;;;9.30;80.19;100071.34;5111903;28;20312;-78
2021/11/08 12:03:17;;;;;;;24.50;16.17;;;;;;;9.22;82.54;100073.47;5111759;28;20580;-78
2021/11/08 12:05:45;;;;;;;22.10;16.17;;;;;;;9.52;80.95;100073.91;5111721;28;20281;-79
2021/11/08 12:08:14;;;;;;;23.25;13.98;;;;;;;9.48;80.15;100077.69;5111482;28;20198;-78
2021/11/08 12:10:45;;;;;;;25.98;17.08;;;;;;;9.43;80.99;100068.97;5111170;28;20194;-77
2021/11/08 12:13:17;;;;;;;27.13;17.35;;;;;;;9.37;80.89;100069.25;5111821;28;20186;-78
2021/11/08 12:15:43;;;;;;;24.73;16.85;;;;;;;9.43;81.67;100060.91;5111167;28;20234;-79
2021/11/08 12:18:15;;;;;;;29.83;19.15;;;;;;;9.76;80.08;100053.06;5111775;28;20186;-78
2021/11/08 12:20:45;;;;;;;25.88;17.00;;;;;;;10.03;78.43;100058.94;5111239;28;20194;-78
2021/11/08 12:23:19;;;;;;;33.38;20.83;;;;;;;10.27;77.75;100055.13;5110932;28;20225;-79
2021/11/08 12:25:46;;;;;;;29.13;19.27;;;;;;;10.23;78.30;100049.88;5111814;28;20645;-78
2021/11/08 12:28:16;;;;;;;25.88;16.33;;;;;;;10.20;77.36;100043.78;5110606;28;20188;-79
2021/11/08 12:30:45;;;;;;;27.50;16.35;;;;;;;10.52;76.38;100044.03;5110921;28;20198;-80
2021/11/08 12:33:26;;;;;;;24.65;17.88;;;;;;;10.82;74.82;100041.56;5110135;28;20195;-78
2021/11/08 12:35:56;;;;;;;28.38;19.38;;;;;;;10.84;74.52;100045.06;5111273;28;20195;-78
2021/11/08 12:38:25;;;;;;;23.45;16.90;;;;;;;10.95;73.50;100050.75;5111237;28;20183;-79
2021/11/08 12:41:08;;;;;;;23.27;16.80;;;;;;;10.40;75.81;100049.09;5111162;28;20606;-77
2021/11/08 12:43:35;;;;;;;30.92;18.70;;;;;;;10.36;75.76;100046.63;5110870;28;20295;-79
2021/11/08 12:46:14;;;;;;;26.15;18.75;;;;;;;10.00;78.91;100045.63;5110822;28;20270;-79
2021/11/08 12:48:41;;;;;;;28.02;18.83;;;;;;;9.77;79.33;100046.75;5111141;28;20687;-78
2021/11/08 12:51:11;;;;;;;28.75;19.83;;;;;;;9.67;81.33;100050.81;5110891;28;20544;-77
2021/11/08 12:53:41;;;;;;;27.55;18.63;;;;;;;9.69;81.06;100042.69;5111102;28;20190;-78